Waddington, United Kingdom
Current Conditions -  °F | °C
As of 8:50 AM on Sunday 23 Nov 2014 (Local Time) from EGXW Reporting Station
Light Rain Light Rain  
Wind Chill:   Ceiling: 4700
Heat Index:   Visibility: 6mi
Dew Point:   Wind: 9mph
Humidity: 93%   Direction: 320°NW
Pressure: 30"   Gusts: NA
Location:  53.17°N, 0.52°W
Report Text: EGXW 230850Z 32008KT 9999 -RA OVC047 07/06 Q1016 RERA BLU
Loading
Personal Weather Stations






























Interactive Weather Map New forecast layout! Learn more

10-Day Weather Forecast

Advertisements
Track Severe Weather on mobile